sensor_id;sensor_type;location;lat;lon;timestamp;temperature;humidity
15231;DHT22;32569;51.762;8.564;2023-08-21T00:00:38;21.10;99.90
15231;DHT22;32569;51.762;8.564;2023-08-21T00:03:05;21.20;99.90
15231;DHT22;32569;51.762;8.564;2023-08-21T00:05:32;21.10;99.90
15231;DHT22;32569;51.762;8.564;2023-08-21T00:07:59;20.90;99.90
15231;DHT22;32569;51.762;8.564;2023-08-21T00:10:25;21.00;99.90
15231;DHT22;32569;51.762;8.564;2023-08-21T00:12:52;20.90;99.90
15231;DHT22;32569;51.762;8.564;2023-08-21T00:15:20;20.80;99.90
15231;DHT22;32569;51.762;8.564;2023-08-21T00:17:47;20.70;99.90
15231;DHT22;32569;51.762;8.564;2023-08-21T00:20:14;20.70;99.90
15231;DHT22;32569;51.762;8.564;2023-08-21T00:22:40;20.80;99.90
15231;DHT22;32569;51.762;8.564;2023-08-21T00:25:07;20.80;99.90
15231;DHT22;32569;51.762;8.564;2023-08-21T00:27:34;20.80;99.90
15231;DHT22;32569;51.762;8.564;2023-08-21T00:30:01;20.90;99.90
15231;DHT22;32569;51.762;8.564;2023-08-21T00:32:29;20.90;99.90
15231;DHT22;32569;51.762;8.564;2023-08-21T00:34:56;20.60;99.90
15231;DHT22;32569;51.762;8.564;2023-08-21T00:37:22;20.60;99.90
15231;DHT22;32569;51.762;8.564;2023-08-21T00:39:49;20.60;99.90
15231;DHT22;32569;51.762;8.564;2023-08-21T00:42:18;20.60;99.90
15231;DHT22;32569;51.762;8.564;2023-08-21T00:44:45;20.40;99.90
15231;DHT22;32569;51.762;8.564;2023-08-21T00:47:15;20.30;99.90
15231;DHT22;32569;51.762;8.564;2023-08-21T00:49:43;20.30;99.90
15231;DHT22;32569;51.762;8.564;2023-08-21T00:52:11;20.40;99.90
15231;DHT22;32569;51.762;8.564;2023-08-21T00:54:38;20.30;99.90
15231;DHT22;32569;51.762;8.564;2023-08-21T00:57:06;20.30;99.90
15231;DHT22;32569;51.762;8.564;2023-08-21T00:59:33;20.10;99.90
15231;DHT22;32569;51.762;8.564;2023-08-21T01:01:59;20.00;99.90
15231;DHT22;32569;51.762;8.564;2023-08-21T01:04:26;20.10;99.90
15231;DHT22;32569;51.762;8.564;2023-08-21T01:06:54;20.10;99.90
15231;DHT22;32569;51.762;8.564;2023-08-21T01:09:27;20.10;99.90
15231;DHT22;32569;51.762;8.564;2023-08-21T01:12:00;20.00;99.90
15231;DHT22;32569;51.762;8.564;2023-08-21T01:14:38;20.10;99.90
15231;DHT22;32569;51.762;8.564;2023-08-21T01:17:09;20.10;99.90
15231;DHT22;32569;51.762;8.564;2023-08-21T01:19:41;20.10;99.90
15231;DHT22;32569;51.762;8.564;2023-08-21T01:22:10;20.10;99.90
15231;DHT22;32569;51.762;8.564;2023-08-21T01:24:38;20.10;99.90
15231;DHT22;32569;51.762;8.564;2023-08-21T01:27:08;20.00;99.90
15231;DHT22;32569;51.762;8.564;2023-08-21T01:29:35;20.10;99.90
15231;DHT22;32569;51.762;8.564;2023-08-21T01:32:06;19.90;99.90
15231;DHT22;32569;51.762;8.564;2023-08-21T01:34:34;19.80;99.90
15231;DHT22;32569;51.762;8.564;2023-08-21T01:37:03;19.80;99.90
15231;DHT22;32569;51.762;8.564;2023-08-21T01:39:30;19.80;99.90
15231;DHT22;32569;51.762;8.564;2023-08-21T01:41:58;19.80;99.90
15231;DHT22;32569;51.762;8.564;2023-08-21T01:44:25;19.80;99.90
15231;DHT22;32569;51.762;8.564;2023-08-21T01:46:52;20.00;99.90
15231;DHT22;32569;51.762;8.564;2023-08-21T01:49:25;20.00;99.90
15231;DHT22;32569;51.762;8.564;2023-08-21T01:51:51;19.80;99.90
15231;DHT22;32569;51.762;8.564;2023-08-21T01:54:21;19.90;99.90
15231;DHT22;32569;51.762;8.564;2023-08-21T01:56:51;19.70;99.90
15231;DHT22;32569;51.762;8.564;2023-08-21T01:59:19;19.60;99.90
15231;DHT22;32569;51.762;8.564;2023-08-21T02:01:46;19.60;99.90
15231;DHT22;32569;51.762;8.564;2023-08-21T02:04:13;19.50;99.90
15231;DHT22;32569;51.762;8.564;2023-08-21T02:06:39;19.60;99.90
15231;DHT22;32569;51.762;8.564;2023-08-21T02:09:06;19.80;99.90
15231;DHT22;32569;51.762;8.564;2023-08-21T02:11:33;19.80;99.90
15231;DHT22;32569;51.762;8.564;2023-08-21T02:14:00;19.70;99.90
15231;DHT22;32569;51.762;8.564;2023-08-21T02:16:28;19.70;99.90
15231;DHT22;32569;51.762;8.564;2023-08-21T02:18:55;19.80;99.90
15231;DHT22;32569;51.762;8.564;2023-08-21T02:21:22;19.70;99.90
15231;DHT22;32569;51.762;8.564;2023-08-21T02:23:49;19.60;99.90
15231;DHT22;32569;51.762;8.564;2023-08-21T02:26:15;19.50;99.90
15231;DHT22;32569;51.762;8.564;2023-08-21T02:28:43;19.40;99.90
15231;DHT22;32569;51.762;8.564;2023-08-21T02:31:13;19.40;99.90
15231;DHT22;32569;51.762;8.564;2023-08-21T02:33:41;19.30;99.90
15231;DHT22;32569;51.762;8.564;2023-08-21T02:36:07;19.10;99.90
15231;DHT22;32569;51.762;8.564;2023-08-21T02:38:35;18.90;99.90
15231;DHT22;32569;51.762;8.564;2023-08-21T02:41:01;18.80;99.90
15231;DHT22;32569;51.762;8.564;2023-08-21T02:43:28;18.90;99.90
15231;DHT22;32569;51.762;8.564;2023-08-21T02:45:55;18.90;99.90
15231;DHT22;32569;51.762;8.564;2023-08-21T02:48:21;19.00;99.90
15231;DHT22;32569;51.762;8.564;2023-08-21T02:50:49;19.10;99.90
15231;DHT22;32569;51.762;8.564;2023-08-21T02:53:16;19.20;99.90
15231;DHT22;32569;51.762;8.564;2023-08-21T02:55:43;19.30;99.90
15231;DHT22;32569;51.762;8.564;2023-08-21T02:58:13;19.40;99.90
15231;DHT22;32569;51.762;8.564;2023-08-21T03:00:39;19.30;99.90
15231;DHT22;32569;51.762;8.564;2023-08-21T03:03:06;19.30;99.90
15231;DHT22;32569;51.762;8.564;2023-08-21T03:05:33;19.30;99.90
15231;DHT22;32569;51.762;8.564;2023-08-21T03:08:01;19.40;99.90
15231;DHT22;32569;51.762;8.564;2023-08-21T03:10:28;19.40;99.90
15231;DHT22;32569;51.762;8.564;2023-08-21T03:12:58;19.30;99.90
15231;DHT22;32569;51.762;8.564;2023-08-21T03:15:25;19.30;99.90
15231;DHT22;32569;51.762;8.564;2023-08-21T03:17:52;19.20;99.90
15231;DHT22;32569;51.762;8.564;2023-08-21T03:20:18;19.20;99.90
15231;DHT22;32569;51.762;8.564;2023-08-21T03:22:45;19.10;99.90
15231;DHT22;32569;51.762;8.564;2023-08-21T03:25:16;19.00;99.90
15231;DHT22;32569;51.762;8.564;2023-08-21T03:27:43;19.00;99.90
15231;DHT22;32569;51.762;8.564;2023-08-21T03:30:15;19.20;99.90
15231;DHT22;32569;51.762;8.564;2023-08-21T03:32:42;19.30;99.90
15231;DHT22;32569;51.762;8.564;2023-08-21T03:35:09;19.30;99.90
15231;DHT22;32569;51.762;8.564;2023-08-21T03:37:35;19.10;99.90
15231;DHT22;32569;51.762;8.564;2023-08-21T03:40:03;19.20;99.90
15231;DHT22;32569;51.762;8.564;2023-08-21T03:42:31;19.20;99.90
15231;DHT22;32569;51.762;8.564;2023-08-21T03:44:58;19.10;99.90
15231;DHT22;32569;51.762;8.564;2023-08-21T03:47:24;19.10;99.90
15231;DHT22;32569;51.762;8.564;2023-08-21T03:49:51;19.10;99.90
15231;DHT22;32569;51.762;8.564;2023-08-21T03:52:18;18.90;99.90
15231;DHT22;32569;51.762;8.564;2023-08-21T03:54:44;18.90;99.90
15231;DHT22;32569;51.762;8.564;2023-08-21T03:57:11;18.90;99.90
15231;DHT22;32569;51.762;8.564;2023-08-21T03:59:39;19.10;99.90
15231;DHT22;32569;51.762;8.564;2023-08-21T04:02:06;19.10;99.90
15231;DHT22;32569;51.762;8.564;2023-08-21T04:04:33;19.00;99.90
15231;DHT22;32569;51.762;8.564;2023-08-21T04:06:59;18.90;99.90
15231;DHT22;32569;51.762;8.564;2023-08-21T04:09:27;18.70;99.90
15231;DHT22;32569;51.762;8.564;2023-08-21T04:11:53;18.70;99.90
15231;DHT22;32569;51.762;8.564;2023-08-21T04:14:20;18.70;99.90
15231;DHT22;32569;51.762;8.564;2023-08-21T04:16:48;18.70;99.90
15231;DHT22;32569;51.762;8.564;2023-08-21T04:19:15;18.70;99.90
15231;DHT22;32569;51.762;8.564;2023-08-21T04:21:41;18.60;99.90
15231;DHT22;32569;51.762;8.564;2023-08-21T04:24:08;18.50;99.90
15231;DHT22;32569;51.762;8.564;2023-08-21T04:26:35;18.40;99.90
15231;DHT22;32569;51.762;8.564;2023-08-21T04:29:01;18.50;99.90
15231;DHT22;32569;51.762;8.564;2023-08-21T04:31:28;18.40;99.90
15231;DHT22;32569;51.762;8.564;2023-08-21T04:33:56;18.40;99.90
15231;DHT22;32569;51.762;8.564;2023-08-21T04:36:23;18.50;99.90
15231;DHT22;32569;51.762;8.564;2023-08-21T04:38:50;18.50;99.90
15231;DHT22;32569;51.762;8.564;2023-08-21T04:41:17;18.60;99.90
15231;DHT22;32569;51.762;8.564;2023-08-21T04:43:43;18.80;99.90
15231;DHT22;32569;51.762;8.564;2023-08-21T04:46:10;19.00;99.90
15231;DHT22;32569;51.762;8.564;2023-08-21T04:48:37;19.00;99.90
15231;DHT22;32569;51.762;8.564;2023-08-21T04:51:05;18.90;99.90
15231;DHT22;32569;51.762;8.564;2023-08-21T04:53:32;18.90;99.90
15231;DHT22;32569;51.762;8.564;2023-08-21T04:56:00;19.00;99.90
15231;DHT22;32569;51.762;8.564;2023-08-21T04:58:27;19.00;99.90
15231;DHT22;32569;51.762;8.564;2023-08-21T05:00:56;19.00;99.90
15231;DHT22;32569;51.762;8.564;2023-08-21T05:03:23;18.90;99.90
15231;DHT22;32569;51.762;8.564;2023-08-21T05:05:53;18.90;99.90
15231;DHT22;32569;51.762;8.564;2023-08-21T05:08:22;18.70;99.90
15231;DHT22;32569;51.762;8.564;2023-08-21T05:10:53;18.60;99.90
15231;DHT22;32569;51.762;8.564;2023-08-21T05:13:20;18.40;99.90
15231;DHT22;32569;51.762;8.564;2023-08-21T05:15:51;18.50;99.90
15231;DHT22;32569;51.762;8.564;2023-08-21T05:18:19;18.70;99.90
15231;DHT22;32569;51.762;8.564;2023-08-21T05:20:46;18.80;99.90
15231;DHT22;32569;51.762;8.564;2023-08-21T05:23:12;18.90;99.90
15231;DHT22;32569;51.762;8.564;2023-08-21T05:25:41;18.80;99.90
15231;DHT22;32569;51.762;8.564;2023-08-21T05:28:08;18.90;99.90
15231;DHT22;32569;51.762;8.564;2023-08-21T05:30:36;18.90;99.90
15231;DHT22;32569;51.762;8.564;2023-08-21T05:33:03;18.90;99.90
15231;DHT22;32569;51.762;8.564;2023-08-21T05:35:33;18.90;99.90
15231;DHT22;32569;51.762;8.564;2023-08-21T05:38:00;19.10;99.90
15231;DHT22;32569;51.762;8.564;2023-08-21T05:40:26;19.10;99.90
15231;DHT22;32569;51.762;8.564;2023-08-21T05:42:54;19.30;99.90
15231;DHT22;32569;51.762;8.564;2023-08-21T05:45:21;19.30;99.90
15231;DHT22;32569;51.762;8.564;2023-08-21T05:47:48;19.50;99.90
15231;DHT22;32569;51.762;8.564;2023-08-21T05:50:15;19.70;99.90
15231;DHT22;32569;51.762;8.564;2023-08-21T05:52:41;19.80;99.90
15231;DHT22;32569;51.762;8.564;2023-08-21T05:55:08;19.90;99.90
15231;DHT22;32569;51.762;8.564;2023-08-21T05:57:35;19.90;99.90
15231;DHT22;32569;51.762;8.564;2023-08-21T06:00:05;20.10;99.90
15231;DHT22;32569;51.762;8.564;2023-08-21T06:02:33;20.30;99.90
15231;DHT22;32569;51.762;8.564;2023-08-21T06:05:00;20.40;99.90
15231;DHT22;32569;51.762;8.564;2023-08-21T06:07:28;20.80;99.90
15231;DHT22;32569;51.762;8.564;2023-08-21T06:09:55;21.10;99.90
15231;DHT22;32569;51.762;8.564;2023-08-21T06:12:21;21.40;99.90
15231;DHT22;32569;51.762;8.564;2023-08-21T06:14:48;21.40;99.90
15231;DHT22;32569;51.762;8.564;2023-08-21T06:17:16;21.10;99.90
15231;DHT22;32569;51.762;8.564;2023-08-21T06:19:43;20.90;99.90
15231;DHT22;32569;51.762;8.564;2023-08-21T06:22:09;20.50;99.90
15231;DHT22;32569;51.762;8.564;2023-08-21T06:24:36;20.40;99.90
15231;DHT22;32569;51.762;8.564;2023-08-21T06:27:03;20.30;99.90
15231;DHT22;32569;51.762;8.564;2023-08-21T06:29:30;20.30;99.90
15231;DHT22;32569;51.762;8.564;2023-08-21T06:31:57;20.30;99.90
15231;DHT22;32569;51.762;8.564;2023-08-21T06:34:25;20.40;99.90
15231;DHT22;32569;51.762;8.564;2023-08-21T06:36:51;20.50;99.90
15231;DHT22;32569;51.762;8.564;2023-08-21T06:39:18;20.60;99.90
15231;DHT22;32569;51.762;8.564;2023-08-21T06:41:45;20.70;99.90
15231;DHT22;32569;51.762;8.564;2023-08-21T06:44:13;20.70;99.90
15231;DHT22;32569;51.762;8.564;2023-08-21T06:46:40;20.80;99.90
15231;DHT22;32569;51.762;8.564;2023-08-21T06:49:07;20.90;99.90
15231;DHT22;32569;51.762;8.564;2023-08-21T06:51:35;20.90;99.90
15231;DHT22;32569;51.762;8.564;2023-08-21T06:54:01;21.00;99.90
15231;DHT22;32569;51.762;8.564;2023-08-21T06:56:28;21.00;99.90
15231;DHT22;32569;51.762;8.564;2023-08-21T06:58:55;21.10;99.90
15231;DHT22;32569;51.762;8.564;2023-08-21T07:01:21;21.20;99.90
15231;DHT22;32569;51.762;8.564;2023-08-21T07:03:48;21.20;99.90
15231;DHT22;32569;51.762;8.564;2023-08-21T07:06:15;21.40;99.90
15231;DHT22;32569;51.762;8.564;2023-08-21T07:08:43;21.50;99.90
15231;DHT22;32569;51.762;8.564;2023-08-21T07:11:10;21.60;99.90
15231;DHT22;32569;51.762;8.564;2023-08-21T07:13:37;21.60;99.90
15231;DHT22;32569;51.762;8.564;2023-08-21T07:16:04;21.80;99.90
15231;DHT22;32569;51.762;8.564;2023-08-21T07:18:32;21.90;99.90
15231;DHT22;32569;51.762;8.564;2023-08-21T07:21:00;22.00;99.90
15231;DHT22;32569;51.762;8.564;2023-08-21T07:23:26;21.90;99.90
15231;DHT22;32569;51.762;8.564;2023-08-21T07:25:55;21.80;99.90
15231;DHT22;32569;51.762;8.564;2023-08-21T07:28:21;21.80;99.90
15231;DHT22;32569;51.762;8.564;2023-08-21T07:30:48;21.80;99.90
15231;DHT22;32569;51.762;8.564;2023-08-21T07:33:15;21.80;99.90
15231;DHT22;32569;51.762;8.564;2023-08-21T07:35:42;21.80;99.90
15231;DHT22;32569;51.762;8.564;2023-08-21T07:38:11;21.90;99.90
15231;DHT22;32569;51.762;8.564;2023-08-21T07:40:37;22.00;99.90
15231;DHT22;32569;51.762;8.564;2023-08-21T07:43:05;22.10;99.90
15231;DHT22;32569;51.762;8.564;2023-08-21T07:45:32;22.10;99.90
15231;DHT22;32569;51.762;8.564;2023-08-21T07:47:59;22.10;99.90
15231;DHT22;32569;51.762;8.564;2023-08-21T07:50:25;22.10;99.90
15231;DHT22;32569;51.762;8.564;2023-08-21T07:52:52;22.20;99.90
15231;DHT22;32569;51.762;8.564;2023-08-21T07:55:19;22.20;99.90
15231;DHT22;32569;51.762;8.564;2023-08-21T07:57:45;22.30;99.90
15231;DHT22;32569;51.762;8.564;2023-08-21T08:00:15;22.50;99.90
15231;DHT22;32569;51.762;8.564;2023-08-21T08:02:41;22.60;99.90
15231;DHT22;32569;51.762;8.564;2023-08-21T08:05:08;22.70;99.90
15231;DHT22;32569;51.762;8.564;2023-08-21T08:07:35;22.80;99.90
15231;DHT22;32569;51.762;8.564;2023-08-21T08:10:02;22.80;99.90
15231;DHT22;32569;51.762;8.564;2023-08-21T08:12:29;23.00;99.90
15231;DHT22;32569;51.762;8.564;2023-08-21T08:14:55;23.00;99.90
15231;DHT22;32569;51.762;8.564;2023-08-21T08:17:23;23.00;99.80
15231;DHT22;32569;51.762;8.564;2023-08-21T08:19:50;23.00;99.90
15231;DHT22;32569;51.762;8.564;2023-08-21T08:22:17;23.00;99.70
15231;DHT22;32569;51.762;8.564;2023-08-21T08:24:43;23.10;99.80
15231;DHT22;32569;51.762;8.564;2023-08-21T08:27:10;23.10;99.40
15231;DHT22;32569;51.762;8.564;2023-08-21T08:29:37;23.20;99.60
15231;DHT22;32569;51.762;8.564;2023-08-21T08:32:05;23.20;99.60
15231;DHT22;32569;51.762;8.564;2023-08-21T08:34:33;23.30;98.80
15231;DHT22;32569;51.762;8.564;2023-08-21T08:36:59;23.30;98.70
15231;DHT22;32569;51.762;8.564;2023-08-21T08:39:26;23.40;98.60
15231;DHT22;32569;51.762;8.564;2023-08-21T08:41:58;23.40;98.70
15231;DHT22;32569;51.762;8.564;2023-08-21T08:44:25;23.40;98.60
15231;DHT22;32569;51.762;8.564;2023-08-21T08:46:53;23.50;99.00
15231;DHT22;32569;51.762;8.564;2023-08-21T08:49:20;23.60;98.50
15231;DHT22;32569;51.762;8.564;2023-08-21T08:51:50;23.60;99.20
15231;DHT22;32569;51.762;8.564;2023-08-21T08:54:17;23.60;97.40
15231;DHT22;32569;51.762;8.564;2023-08-21T08:56:43;23.70;97.80
15231;DHT22;32569;51.762;8.564;2023-08-21T08:59:10;23.70;97.50
15231;DHT22;32569;51.762;8.564;2023-08-21T09:01:38;23.70;97.40
15231;DHT22;32569;51.762;8.564;2023-08-21T09:04:04;23.80;98.00
15231;DHT22;32569;51.762;8.564;2023-08-21T09:06:32;23.80;97.20
15231;DHT22;32569;51.762;8.564;2023-08-21T09:09:00;23.80;96.90
15231;DHT22;32569;51.762;8.564;2023-08-21T09:11:27;23.90;98.20
15231;DHT22;32569;51.762;8.564;2023-08-21T09:13:55;24.00;97.30
15231;DHT22;32569;51.762;8.564;2023-08-21T09:16:23;23.90;97.00
15231;DHT22;32569;51.762;8.564;2023-08-21T09:18:52;24.00;96.90
15231;DHT22;32569;51.762;8.564;2023-08-21T09:21:20;24.20;97.00
15231;DHT22;32569;51.762;8.564;2023-08-21T09:23:48;24.30;96.30
15231;DHT22;32569;51.762;8.564;2023-08-21T09:26:19;24.30;96.00
15231;DHT22;32569;51.762;8.564;2023-08-21T09:28:47;24.30;95.80
15231;DHT22;32569;51.762;8.564;2023-08-21T09:31:14;24.30;96.20
15231;DHT22;32569;51.762;8.564;2023-08-21T09:33:41;24.40;95.70
15231;DHT22;32569;51.762;8.564;2023-08-21T09:36:09;24.30;95.40
15231;DHT22;32569;51.762;8.564;2023-08-21T09:38:38;24.30;95.40
15231;DHT22;32569;51.762;8.564;2023-08-21T09:41:05;24.40;95.30
15231;DHT22;32569;51.762;8.564;2023-08-21T09:43:41;24.50;95.50
15231;DHT22;32569;51.762;8.564;2023-08-21T09:46:08;24.60;95.70
15231;DHT22;32569;51.762;8.564;2023-08-21T09:48:35;24.70;96.00
15231;DHT22;32569;51.762;8.564;2023-08-21T09:51:04;24.80;95.60
15231;DHT22;32569;51.762;8.564;2023-08-21T09:53:30;24.80;95.80
15231;DHT22;32569;51.762;8.564;2023-08-21T09:55:59;25.00;95.10
15231;DHT22;32569;51.762;8.564;2023-08-21T09:58:28;25.10;95.70
15231;DHT22;32569;51.762;8.564;2023-08-21T10:00:58;25.10;95.40
15231;DHT22;32569;51.762;8.564;2023-08-21T10:03:26;25.10;94.60
15231;DHT22;32569;51.762;8.564;2023-08-21T10:05:55;24.90;95.20
15231;DHT22;32569;51.762;8.564;2023-08-21T10:08:24;24.80;95.20
15231;DHT22;32569;51.762;8.564;2023-08-21T10:10:52;24.80;95.00
15231;DHT22;32569;51.762;8.564;2023-08-21T10:13:18;24.80;95.30
15231;DHT22;32569;51.762;8.564;2023-08-21T10:15:46;24.70;95.40
15231;DHT22;32569;51.762;8.564;2023-08-21T10:18:21;24.90;95.70
15231;DHT22;32569;51.762;8.564;2023-08-21T10:20:49;24.90;95.10
15231;DHT22;32569;51.762;8.564;2023-08-21T10:23:27;24.90;95.00
15231;DHT22;32569;51.762;8.564;2023-08-21T10:25:58;24.90;95.10
15231;DHT22;32569;51.762;8.564;2023-08-21T10:28:25;25.00;95.40
15231;DHT22;32569;51.762;8.564;2023-08-21T10:30:51;25.10;95.30
15231;DHT22;32569;51.762;8.564;2023-08-21T10:33:46;25.30;95.10
15231;DHT22;32569;51.762;8.564;2023-08-21T10:36:12;25.50;95.30
15231;DHT22;32569;51.762;8.564;2023-08-21T10:39:00;25.60;95.10
15231;DHT22;32569;51.762;8.564;2023-08-21T10:41:27;25.50;95.00
15231;DHT22;32569;51.762;8.564;2023-08-21T10:43:53;25.60;95.00
15231;DHT22;32569;51.762;8.564;2023-08-21T10:46:20;25.80;94.80
15231;DHT22;32569;51.762;8.564;2023-08-21T10:48:48;25.80;94.20
15231;DHT22;32569;51.762;8.564;2023-08-21T10:51:17;25.70;94.20
15231;DHT22;32569;51.762;8.564;2023-08-21T10:53:44;25.90;94.60
15231;DHT22;32569;51.762;8.564;2023-08-21T10:56:10;26.00;94.30
15231;DHT22;32569;51.762;8.564;2023-08-21T10:58:41;26.00;94.60
15231;DHT22;32569;51.762;8.564;2023-08-21T11:01:08;26.10;94.90
15231;DHT22;32569;51.762;8.564;2023-08-21T11:03:38;26.20;94.40
15231;DHT22;32569;51.762;8.564;2023-08-21T11:06:09;26.10;94.70
15231;DHT22;32569;51.762;8.564;2023-08-21T11:08:36;26.20;94.20
15231;DHT22;32569;51.762;8.564;2023-08-21T11:11:05;26.10;94.60
15231;DHT22;32569;51.762;8.564;2023-08-21T11:13:32;26.10;94.50
15231;DHT22;32569;51.762;8.564;2023-08-21T11:15:59;26.20;94.20
15231;DHT22;32569;51.762;8.564;2023-08-21T11:18:30;26.00;93.80
15231;DHT22;32569;51.762;8.564;2023-08-21T11:21:09;25.90;94.60
15231;DHT22;32569;51.762;8.564;2023-08-21T11:23:37;25.90;95.30
15231;DHT22;32569;51.762;8.564;2023-08-21T11:26:05;26.10;95.10
15231;DHT22;32569;51.762;8.564;2023-08-21T11:28:32;26.10;94.10
15231;DHT22;32569;51.762;8.564;2023-08-21T11:30:59;26.20;94.20
15231;DHT22;32569;51.762;8.564;2023-08-21T11:33:27;26.30;94.60
15231;DHT22;32569;51.762;8.564;2023-08-21T11:35:54;26.40;94.80
15231;DHT22;32569;51.762;8.564;2023-08-21T11:38:25;26.50;94.20
15231;DHT22;32569;51.762;8.564;2023-08-21T11:40:54;26.40;94.20
15231;DHT22;32569;51.762;8.564;2023-08-21T11:43:21;26.20;94.40
15231;DHT22;32569;51.762;8.564;2023-08-21T11:45:47;26.20;94.60
15231;DHT22;32569;51.762;8.564;2023-08-21T11:48:14;26.10;95.20
15231;DHT22;32569;51.762;8.564;2023-08-21T11:50:41;26.20;94.70
15231;DHT22;32569;51.762;8.564;2023-08-21T11:53:08;26.20;94.70
15231;DHT22;32569;51.762;8.564;2023-08-21T11:55:38;26.20;94.60
15231;DHT22;32569;51.762;8.564;2023-08-21T11:58:06;26.40;94.90
15231;DHT22;32569;51.762;8.564;2023-08-21T12:00:33;26.70;95.00
15231;DHT22;32569;51.762;8.564;2023-08-21T12:03:01;26.70;94.50
15231;DHT22;32569;51.762;8.564;2023-08-21T12:05:28;26.70;94.50
15231;DHT22;32569;51.762;8.564;2023-08-21T12:07:56;26.60;94.60
15231;DHT22;32569;51.762;8.564;2023-08-21T12:10:25;26.70;95.00
15231;DHT22;32569;51.762;8.564;2023-08-21T12:12:54;26.70;95.00
15231;DHT22;32569;51.762;8.564;2023-08-21T12:15:21;26.60;95.20
15231;DHT22;32569;51.762;8.564;2023-08-21T12:17:48;26.50;94.90
15231;DHT22;32569;51.762;8.564;2023-08-21T12:20:15;26.30;94.50
15231;DHT22;32569;51.762;8.564;2023-08-21T12:22:41;26.20;94.90
15231;DHT22;32569;51.762;8.564;2023-08-21T12:25:09;26.20;95.00
15231;DHT22;32569;51.762;8.564;2023-08-21T12:27:36;26.20;95.10
15231;DHT22;32569;51.762;8.564;2023-08-21T12:30:06;26.20;94.80
15231;DHT22;32569;51.762;8.564;2023-08-21T12:32:33;26.20;95.40
15231;DHT22;32569;51.762;8.564;2023-08-21T12:34:59;26.30;95.10
15231;DHT22;32569;51.762;8.564;2023-08-21T12:37:26;26.50;95.40
15231;DHT22;32569;51.762;8.564;2023-08-21T12:39:53;26.60;95.20
15231;DHT22;32569;51.762;8.564;2023-08-21T12:42:20;26.70;95.10
15231;DHT22;32569;51.762;8.564;2023-08-21T12:44:47;26.60;94.70
15231;DHT22;32569;51.762;8.564;2023-08-21T12:47:15;26.60;94.90
15231;DHT22;32569;51.762;8.564;2023-08-21T12:49:42;26.60;94.80
15231;DHT22;32569;51.762;8.564;2023-08-21T12:52:09;26.50;94.50
15231;DHT22;32569;51.762;8.564;2023-08-21T12:54:38;26.50;95.20
15231;DHT22;32569;51.762;8.564;2023-08-21T12:57:05;26.50;95.30
15231;DHT22;32569;51.762;8.564;2023-08-21T12:59:32;26.50;95.30
15231;DHT22;32569;51.762;8.564;2023-08-21T13:01:59;26.50;95.20
15231;DHT22;32569;51.762;8.564;2023-08-21T13:04:28;26.60;95.00
15231;DHT22;32569;51.762;8.564;2023-08-21T13:06:55;26.60;95.10
15231;DHT22;32569;51.762;8.564;2023-08-21T13:09:23;26.70;95.00
15231;DHT22;32569;51.762;8.564;2023-08-21T13:11:50;26.60;94.60
15231;DHT22;32569;51.762;8.564;2023-08-21T13:14:17;26.60;94.70
15231;DHT22;32569;51.762;8.564;2023-08-21T13:16:44;26.60;94.90
15231;DHT22;32569;51.762;8.564;2023-08-21T13:19:11;26.70;95.00
15231;DHT22;32569;51.762;8.564;2023-08-21T13:21:39;26.70;95.40
15231;DHT22;32569;51.762;8.564;2023-08-21T13:24:06;26.70;94.60
15231;DHT22;32569;51.762;8.564;2023-08-21T13:26:33;26.70;94.90
15231;DHT22;32569;51.762;8.564;2023-08-21T13:28:59;26.60;94.60
15231;DHT22;32569;51.762;8.564;2023-08-21T13:31:26;26.40;94.40
15231;DHT22;32569;51.762;8.564;2023-08-21T13:33:54;26.40;94.80
15231;DHT22;32569;51.762;8.564;2023-08-21T13:36:21;26.40;95.00
15231;DHT22;32569;51.762;8.564;2023-08-21T13:38:49;26.40;94.80
15231;DHT22;32569;51.762;8.564;2023-08-21T13:41:16;26.40;94.90
15231;DHT22;32569;51.762;8.564;2023-08-21T13:43:42;26.40;95.20
15231;DHT22;32569;51.762;8.564;2023-08-21T13:46:09;26.60;95.10
15231;DHT22;32569;51.762;8.564;2023-08-21T13:48:36;26.60;94.60
15231;DHT22;32569;51.762;8.564;2023-08-21T13:51:03;26.50;94.80
15231;DHT22;32569;51.762;8.564;2023-08-21T13:53:29;26.30;94.70
15231;DHT22;32569;51.762;8.564;2023-08-21T13:55:57;26.20;94.70
15231;DHT22;32569;51.762;8.564;2023-08-21T13:58:24;26.20;95.20
15231;DHT22;32569;51.762;8.564;2023-08-21T14:00:51;26.30;95.10
15231;DHT22;32569;51.762;8.564;2023-08-21T14:03:18;26.30;94.90
15231;DHT22;32569;51.762;8.564;2023-08-21T14:05:44;26.30;94.90
15231;DHT22;32569;51.762;8.564;2023-08-21T14:08:11;26.30;95.30
15231;DHT22;32569;51.762;8.564;2023-08-21T14:10:38;26.40;95.10
15231;DHT22;32569;51.762;8.564;2023-08-21T14:13:06;26.40;95.60
15231;DHT22;32569;51.762;8.564;2023-08-21T14:15:33;26.50;95.10
15231;DHT22;32569;51.762;8.564;2023-08-21T14:18:00;26.70;95.00
15231;DHT22;32569;51.762;8.564;2023-08-21T14:20:27;26.70;94.80
15231;DHT22;32569;51.762;8.564;2023-08-21T14:22:54;26.70;94.70
15231;DHT22;32569;51.762;8.564;2023-08-21T14:25:21;26.70;95.00
15231;DHT22;32569;51.762;8.564;2023-08-21T14:27:47;26.60;94.60
15231;DHT22;32569;51.762;8.564;2023-08-21T14:30:16;26.70;95.50
15231;DHT22;32569;51.762;8.564;2023-08-21T14:32:48;26.60;94.50
15231;DHT22;32569;51.762;8.564;2023-08-21T14:35:15;26.50;95.10
15231;DHT22;32569;51.762;8.564;2023-08-21T14:37:42;26.60;94.90
15231;DHT22;32569;51.762;8.564;2023-08-21T14:40:09;26.60;95.00
15231;DHT22;32569;51.762;8.564;2023-08-21T14:42:36;26.70;94.60
15231;DHT22;32569;51.762;8.564;2023-08-21T14:45:03;26.80;94.60
15231;DHT22;32569;51.762;8.564;2023-08-21T14:47:33;26.70;94.60
15231;DHT22;32569;51.762;8.564;2023-08-21T14:50:09;26.70;94.60
15231;DHT22;32569;51.762;8.564;2023-08-21T14:52:40;26.70;94.60
15231;DHT22;32569;51.762;8.564;2023-08-21T14:55:08;26.60;95.00
15231;DHT22;32569;51.762;8.564;2023-08-21T14:57:35;26.70;95.00
15231;DHT22;32569;51.762;8.564;2023-08-21T15:00:02;26.70;94.50
15231;DHT22;32569;51.762;8.564;2023-08-21T15:02:40;26.90;95.10
15231;DHT22;32569;51.762;8.564;2023-08-21T15:05:11;27.00;95.20
15231;DHT22;32569;51.762;8.564;2023-08-21T15:07:41;27.20;94.30
15231;DHT22;32569;51.762;8.564;2023-08-21T15:10:09;27.10;94.30
15231;DHT22;32569;51.762;8.564;2023-08-21T15:12:36;27.10;94.40
15231;DHT22;32569;51.762;8.564;2023-08-21T15:15:03;27.10;94.70
15231;DHT22;32569;51.762;8.564;2023-08-21T15:17:32;27.20;94.40
15231;DHT22;32569;51.762;8.564;2023-08-21T15:19:58;27.30;94.40
15231;DHT22;32569;51.762;8.564;2023-08-21T15:22:25;27.30;94.30
15231;DHT22;32569;51.762;8.564;2023-08-21T15:24:52;27.00;94.40
15231;DHT22;32569;51.762;8.564;2023-08-21T15:27:19;26.90;94.40
15231;DHT22;32569;51.762;8.564;2023-08-21T15:29:45;26.90;94.40
15231;DHT22;32569;51.762;8.564;2023-08-21T15:32:12;26.90;95.00